Anderson, South Dakota
Current Conditions -  °F | °C
As of 12:53 AM on Friday 24 Oct 2014 (Local Time) from KHEI Reporting Station
Clear Clear  
Wind Chill: 40°   Ceiling: Unl
Heat Index: 43°   Visibility: 10mi
Dew Point: 28°   Wind: 5mph
Humidity: 56%   Direction: NA
Pressure: 29.87"   Gusts: NA
Location:  45.2919°N, 102.298°W
Report Text: KHEI 240653Z AUTO VRB04KT 10SM CLR 06/M02 A2987 RMK AO2 SLP111 T00611022 402221039
Loading
Personal Weather Stations






























Interactive Weather Map
Tropical Storm Tracking
New forecast layout! Learn more

10-Day Weather Forecast

Advertisements
Track Severe Weather on mobile